sensor_id;sensor_type;location;lat;lon;timestamp;pressure;altitude;pressure_sealevel;temperature;humidity
28004;BME280;15330;51.234;6.754;2023-10-31T00:01:08;98385.72;;;7.33;100.00
28004;BME280;15330;51.234;6.754;2023-10-31T00:03:33;98396.75;;;7.30;100.00
28004;BME280;15330;51.234;6.754;2023-10-31T00:05:59;98401.25;;;7.23;100.00
28004;BME280;15330;51.234;6.754;2023-10-31T00:08:24;98399.59;;;7.15;100.00
28004;BME280;15330;51.234;6.754;2023-10-31T00:10:50;98413.28;;;7.12;100.00
28004;BME280;15330;51.234;6.754;2023-10-31T00:13:15;98413.09;;;7.20;100.00
28004;BME280;15330;51.234;6.754;2023-10-31T00:15:41;98420.22;;;7.13;100.00
28004;BME280;15330;51.234;6.754;2023-10-31T00:18:06;98417.53;;;7.07;100.00
28004;BME280;15330;51.234;6.754;2023-10-31T00:20:31;98448.59;;;7.06;100.00
28004;BME280;15330;51.234;6.754;2023-10-31T00:22:57;98434.94;;;7.09;100.00
28004;BME280;15330;51.234;6.754;2023-10-31T00:25:22;98456.81;;;7.05;100.00
28004;BME280;15330;51.234;6.754;2023-10-31T00:27:47;98459.69;;;7.10;100.00
28004;BME280;15330;51.234;6.754;2023-10-31T00:30:13;98470.28;;;7.03;100.00
28004;BME280;15330;51.234;6.754;2023-10-31T00:32:38;98470.50;;;7.08;100.00
28004;BME280;15330;51.234;6.754;2023-10-31T00:35:04;98487.09;;;7.10;100.00
28004;BME280;15330;51.234;6.754;2023-10-31T00:37:30;98481.94;;;7.02;100.00
28004;BME280;15330;51.234;6.754;2023-10-31T00:39:55;98483.22;;;7.13;100.00
28004;BME280;15330;51.234;6.754;2023-10-31T00:42:20;98481.94;;;7.02;100.00
28004;BME280;15330;51.234;6.754;2023-10-31T00:44:46;98482.31;;;6.92;100.00
28004;BME280;15330;51.234;6.754;2023-10-31T00:47:11;98493.34;;;6.96;100.00
28004;BME280;15330;51.234;6.754;2023-10-31T00:49:36;98499.06;;;6.93;100.00
28004;BME280;15330;51.234;6.754;2023-10-31T00:52:02;98501.72;;;6.93;100.00
28004;BME280;15330;51.234;6.754;2023-10-31T00:54:27;98503.28;;;6.81;100.00
28004;BME280;15330;51.234;6.754;2023-10-31T00:56:53;98506.97;;;6.86;100.00
28004;BME280;15330;51.234;6.754;2023-10-31T00:59:18;98512.75;;;6.96;100.00
28004;BME280;15330;51.234;6.754;2023-10-31T01:01:43;98523.94;;;6.85;100.00
28004;BME280;15330;51.234;6.754;2023-10-31T01:04:10;98523.34;;;6.83;100.00
28004;BME280;15330;51.234;6.754;2023-10-31T01:06:41;98527.19;;;6.81;100.00
28004;BME280;15330;51.234;6.754;2023-10-31T01:09:06;98533.38;;;6.88;100.00
28004;BME280;15330;51.234;6.754;2023-10-31T01:11:32;98537.63;;;6.82;100.00
28004;BME280;15330;51.234;6.754;2023-10-31T01:13:57;98541.13;;;6.83;100.00
28004;BME280;15330;51.234;6.754;2023-10-31T01:16:22;98553.59;;;6.82;100.00
28004;BME280;15330;51.234;6.754;2023-10-31T01:18:48;98543.78;;;6.83;100.00
28004;BME280;15330;51.234;6.754;2023-10-31T01:21:13;98546.00;;;6.79;100.00
28004;BME280;15330;51.234;6.754;2023-10-31T01:23:38;98548.47;;;6.81;100.00
28004;BME280;15330;51.234;6.754;2023-10-31T01:26:04;98549.84;;;6.77;100.00
28004;BME280;15330;51.234;6.754;2023-10-31T01:28:29;98549.38;;;6.67;100.00
28004;BME280;15330;51.234;6.754;2023-10-31T01:30:54;98545.06;;;6.66;100.00
28004;BME280;15330;51.234;6.754;2023-10-31T01:33:20;98548.91;;;6.84;100.00
28004;BME280;15330;51.234;6.754;2023-10-31T01:35:45;98546.53;;;6.68;100.00
28004;BME280;15330;51.234;6.754;2023-10-31T01:38:11;98539.22;;;6.77;100.00
28004;BME280;15330;51.234;6.754;2023-10-31T01:40:36;98555.16;;;6.77;100.00
28004;BME280;15330;51.234;6.754;2023-10-31T01:43:01;98552.16;;;6.86;100.00
28004;BME280;15330;51.234;6.754;2023-10-31T01:45:27;98554.75;;;6.73;100.00
28004;BME280;15330;51.234;6.754;2023-10-31T01:47:52;98560.53;;;6.83;100.00
28004;BME280;15330;51.234;6.754;2023-10-31T01:50:18;98563.31;;;6.75;100.00
28004;BME280;15330;51.234;6.754;2023-10-31T01:52:43;98563.31;;;6.75;100.00
28004;BME280;15330;51.234;6.754;2023-10-31T01:55:10;98564.78;;;6.78;100.00
28004;BME280;15330;51.234;6.754;2023-10-31T01:57:35;98571.16;;;6.83;100.00
28004;BME280;15330;51.234;6.754;2023-10-31T02:00:01;98573.38;;;6.80;100.00
28004;BME280;15330;51.234;6.754;2023-10-31T02:02:27;98569.56;;;6.89;100.00
28004;BME280;15330;51.234;6.754;2023-10-31T02:04:53;98571.28;;;6.75;100.00
28004;BME280;15330;51.234;6.754;2023-10-31T02:07:19;98568.06;;;6.80;100.00
28004;BME280;15330;51.234;6.754;2023-10-31T02:09:44;98572.81;;;6.84;100.00
28004;BME280;15330;51.234;6.754;2023-10-31T02:12:09;98569.34;;;6.84;100.00
28004;BME280;15330;51.234;6.754;2023-10-31T02:14:35;98564.16;;;6.76;100.00
28004;BME280;15330;51.234;6.754;2023-10-31T02:17:00;98571.16;;;6.83;100.00
28004;BME280;15330;51.234;6.754;2023-10-31T02:19:26;98563.78;;;6.79;100.00
28004;BME280;15330;51.234;6.754;2023-10-31T02:21:51;98569.91;;;6.79;100.00
28004;BME280;15330;51.234;6.754;2023-10-31T02:24:17;98569.69;;;6.74;100.00
28004;BME280;15330;51.234;6.754;2023-10-31T02:26:42;98567.16;;;6.66;100.00
28004;BME280;15330;51.234;6.754;2023-10-31T02:29:08;98563.66;;;6.66;100.00
28004;BME280;15330;51.234;6.754;2023-10-31T02:31:33;98561.09;;;6.79;100.00
28004;BME280;15330;51.234;6.754;2023-10-31T02:33:58;98566.31;;;6.66;100.00
28004;BME280;15330;51.234;6.754;2023-10-31T02:36:24;98566.09;;;6.60;100.00
28004;BME280;15330;51.234;6.754;2023-10-31T02:38:49;98560.78;;;6.60;100.00
28004;BME280;15330;51.234;6.754;2023-10-31T02:41:15;98562.28;;;6.70;100.00
28004;BME280;15330;51.234;6.754;2023-10-31T02:43:41;98560.19;;;6.65;100.00
28004;BME280;15330;51.234;6.754;2023-10-31T02:46:06;98558.16;;;6.67;100.00
28004;BME280;15330;51.234;6.754;2023-10-31T02:48:32;98561.25;;;6.71;100.00
28004;BME280;15330;51.234;6.754;2023-10-31T02:51:04;98569.38;;;6.62;100.00
28004;BME280;15330;51.234;6.754;2023-10-31T02:53:29;98573.69;;;6.63;100.00
28004;BME280;15330;51.234;6.754;2023-10-31T02:55:55;98566.84;;;6.54;100.00
28004;BME280;15330;51.234;6.754;2023-10-31T02:58:20;98570.22;;;6.63;100.00
28004;BME280;15330;51.234;6.754;2023-10-31T03:00:45;98580.88;;;6.70;100.00
28004;BME280;15330;51.234;6.754;2023-10-31T03:03:11;98572.97;;;6.55;100.00
28004;BME280;15330;51.234;6.754;2023-10-31T03:05:36;98579.56;;;6.59;100.00
28004;BME280;15330;51.234;6.754;2023-10-31T03:08:02;98575.75;;;6.68;100.00
28004;BME280;15330;51.234;6.754;2023-10-31T03:10:27;98572.91;;;6.70;100.00
28004;BME280;15330;51.234;6.754;2023-10-31T03:12:52;98581.03;;;6.61;100.00
28004;BME280;15330;51.234;6.754;2023-10-31T03:15:18;98578.47;;;6.75;100.00
28004;BME280;15330;51.234;6.754;2023-10-31T03:17:43;98581.13;;;6.75;100.00
28004;BME280;15330;51.234;6.754;2023-10-31T03:20:09;98591.50;;;6.70;100.00
28004;BME280;15330;51.234;6.754;2023-10-31T03:22:34;98590.22;;;6.66;100.00
28004;BME280;15330;51.234;6.754;2023-10-31T03:25:00;98592.06;;;6.65;100.00
28004;BME280;15330;51.234;6.754;2023-10-31T03:27:26;98595.31;;;6.60;100.00
28004;BME280;15330;51.234;6.754;2023-10-31T03:29:51;98593.38;;;6.76;100.00
28004;BME280;15330;51.234;6.754;2023-10-31T03:32:17;98587.06;;;6.77;100.00
28004;BME280;15330;51.234;6.754;2023-10-31T03:34:42;98589.22;;;6.67;100.00
28004;BME280;15330;51.234;6.754;2023-10-31T03:37:07;98591.25;;;6.64;100.00
28004;BME280;15330;51.234;6.754;2023-10-31T03:39:33;98593.28;;;6.62;100.00
28004;BME280;15330;51.234;6.754;2023-10-31T03:41:59;98589.09;;;6.75;100.00
28004;BME280;15330;51.234;6.754;2023-10-31T03:44:25;98585.94;;;6.64;100.00
28004;BME280;15330;51.234;6.754;2023-10-31T03:46:50;98596.63;;;6.71;100.00
28004;BME280;15330;51.234;6.754;2023-10-31T03:49:16;98589.09;;;6.75;100.00
28004;BME280;15330;51.234;6.754;2023-10-31T03:51:41;98594.59;;;6.73;100.00
28004;BME280;15330;51.234;6.754;2023-10-31T03:54:07;98596.66;;;6.78;100.00
28004;BME280;15330;51.234;6.754;2023-10-31T03:56:42;98606.28;;;6.79;100.00
28004;BME280;15330;51.234;6.754;2023-10-31T03:59:08;98610.22;;;6.83;100.00
28004;BME280;15330;51.234;6.754;2023-10-31T04:01:33;98615.97;;;6.65;100.00
28004;BME280;15330;51.234;6.754;2023-10-31T04:03:59;98609.09;;;6.71;100.00
28004;BME280;15330;51.234;6.754;2023-10-31T04:06:24;98615.72;;;6.81;100.00
28004;BME280;15330;51.234;6.754;2023-10-31T04:08:50;98630.56;;;6.76;100.00
28004;BME280;15330;51.234;6.754;2023-10-31T04:11:15;98621.72;;;6.69;100.00
28004;BME280;15330;51.234;6.754;2023-10-31T04:13:40;98619.72;;;6.71;100.00
28004;BME280;15330;51.234;6.754;2023-10-31T04:16:06;98620.91;;;6.68;100.00
28004;BME280;15330;51.234;6.754;2023-10-31T04:18:32;98623.75;;;6.67;100.00
28004;BME280;15330;51.234;6.754;2023-10-31T04:20:57;98630.91;;;6.66;100.00
28004;BME280;15330;51.234;6.754;2023-10-31T04:23:22;98634.38;;;6.67;100.00
28004;BME280;15330;51.234;6.754;2023-10-31T04:25:48;98640.34;;;6.69;100.00
28004;BME280;15330;51.234;6.754;2023-10-31T04:28:13;98635.16;;;6.60;100.00
28004;BME280;15330;51.234;6.754;2023-10-31T04:30:40;98633.19;;;6.69;100.00
28004;BME280;15330;51.234;6.754;2023-10-31T04:33:05;98630.84;;;6.59;100.00
28004;BME280;15330;51.234;6.754;2023-10-31T04:35:30;98641.72;;;6.64;100.00
28004;BME280;15330;51.234;6.754;2023-10-31T04:37:56;98647.75;;;6.73;100.00
28004;BME280;15330;51.234;6.754;2023-10-31T04:40:22;98645.00;;;6.67;100.00
28004;BME280;15330;51.234;6.754;2023-10-31T04:42:47;98656.53;;;6.74;100.00
28004;BME280;15330;51.234;6.754;2023-10-31T04:45:13;98663.50;;;6.75;100.00
28004;BME280;15330;51.234;6.754;2023-10-31T04:47:38;98659.75;;;6.69;100.00
28004;BME280;15330;51.234;6.754;2023-10-31T04:50:03;98660.53;;;6.63;100.00
28004;BME280;15330;51.234;6.754;2023-10-31T04:52:29;98656.09;;;6.70;100.00
28004;BME280;15330;51.234;6.754;2023-10-31T04:54:54;98668.53;;;6.70;100.00
28004;BME280;15330;51.234;6.754;2023-10-31T04:57:20;98673.31;;;6.74;100.00
28004;BME280;15330;51.234;6.754;2023-10-31T04:59:45;98671.69;;;6.80;100.00
28004;BME280;15330;51.234;6.754;2023-10-31T05:02:11;98671.06;;;6.78;100.00
28004;BME280;15330;51.234;6.754;2023-10-31T05:04:39;98673.81;;;6.63;100.00
28004;BME280;15330;51.234;6.754;2023-10-31T05:07:05;98672.16;;;6.83;100.00
28004;BME280;15330;51.234;6.754;2023-10-31T05:09:31;98673.78;;;6.84;100.00
28004;BME280;15330;51.234;6.754;2023-10-31T05:11:56;98672.75;;;6.85;100.00
28004;BME280;15330;51.234;6.754;2023-10-31T05:14:22;98673.72;;;6.78;100.00
28004;BME280;15330;51.234;6.754;2023-10-31T05:16:47;98678.59;;;6.95;100.00
28004;BME280;15330;51.234;6.754;2023-10-31T05:19:12;98685.78;;;7.02;100.00
28004;BME280;15330;51.234;6.754;2023-10-31T05:21:38;98689.91;;;7.04;100.00
28004;BME280;15330;51.234;6.754;2023-10-31T05:24:04;98692.41;;;7.40;100.00
28004;BME280;15330;51.234;6.754;2023-10-31T05:26:29;98687.44;;;7.30;100.00
28004;BME280;15330;51.234;6.754;2023-10-31T05:28:56;98697.41;;;7.22;100.00
28004;BME280;15330;51.234;6.754;2023-10-31T05:31:23;98691.28;;;7.00;100.00
28004;BME280;15330;51.234;6.754;2023-10-31T05:33:48;98700.28;;;7.27;100.00
28004;BME280;15330;51.234;6.754;2023-10-31T05:36:21;98700.13;;;7.07;100.00
28004;BME280;15330;51.234;6.754;2023-10-31T05:38:46;98705.22;;;7.02;100.00
28004;BME280;15330;51.234;6.754;2023-10-31T05:41:12;98712.25;;;6.88;100.00
28004;BME280;15330;51.234;6.754;2023-10-31T05:43:38;98715.81;;;6.95;100.00
28004;BME280;15330;51.234;6.754;2023-10-31T05:46:03;98717.50;;;6.82;100.00
28004;BME280;15330;51.234;6.754;2023-10-31T05:48:30;98715.47;;;7.05;100.00
28004;BME280;15330;51.234;6.754;2023-10-31T05:50:56;98726.28;;;7.04;100.00
28004;BME280;15330;51.234;6.754;2023-10-31T05:53:21;98721.28;;;7.15;100.00
28004;BME280;15330;51.234;6.754;2023-10-31T05:55:46;98729.38;;;6.86;100.00
28004;BME280;15330;51.234;6.754;2023-10-31T05:58:12;98737.00;;;6.89;100.00
28004;BME280;15330;51.234;6.754;2023-10-31T06:00:37;98737.81;;;6.89;100.00
28004;BME280;15330;51.234;6.754;2023-10-31T06:03:03;98745.59;;;6.70;100.00
28004;BME280;15330;51.234;6.754;2023-10-31T06:05:28;98738.69;;;6.75;100.00
28004;BME280;15330;51.234;6.754;2023-10-31T06:07:54;98750.38;;;6.59;100.00
28004;BME280;15330;51.234;6.754;2023-10-31T06:10:20;98751.28;;;6.67;100.00
28004;BME280;15330;51.234;6.754;2023-10-31T06:12:46;98760.56;;;6.56;100.00
28004;BME280;15330;51.234;6.754;2023-10-31T06:15:12;98769.94;;;6.52;100.00
28004;BME280;15330;51.234;6.754;2023-10-31T06:17:37;98774.59;;;6.50;100.00
28004;BME280;15330;51.234;6.754;2023-10-31T06:20:03;98774.03;;;6.54;100.00
28004;BME280;15330;51.234;6.754;2023-10-31T06:22:28;98781.38;;;6.52;100.00
28004;BME280;15330;51.234;6.754;2023-10-31T06:24:53;98785.16;;;6.43;100.00
28004;BME280;15330;51.234;6.754;2023-10-31T06:27:19;98784.41;;;6.49;100.00
28004;BME280;15330;51.234;6.754;2023-10-31T06:29:44;98792.38;;;6.49;100.00
28004;BME280;15330;51.234;6.754;2023-10-31T06:32:09;98793.13;;;6.43;100.00
28004;BME280;15330;51.234;6.754;2023-10-31T06:34:35;98794.19;;;6.49;100.00
28004;BME280;15330;51.234;6.754;2023-10-31T06:37:00;98805.53;;;6.57;100.00
28004;BME280;15330;51.234;6.754;2023-10-31T06:39:25;98794.00;;;6.50;100.00
28004;BME280;15330;51.234;6.754;2023-10-31T06:41:54;98803.06;;;6.56;100.00
28004;BME280;15330;51.234;6.754;2023-10-31T06:44:21;98807.13;;;6.52;100.00
28004;BME280;15330;51.234;6.754;2023-10-31T06:46:46;98817.28;;;6.48;100.00
28004;BME280;15330;51.234;6.754;2023-10-31T06:49:11;98818.41;;;6.39;100.00
28004;BME280;15330;51.234;6.754;2023-10-31T06:51:37;98817.84;;;6.29;100.00
28004;BME280;15330;51.234;6.754;2023-10-31T06:54:02;98824.88;;;6.51;100.00
28004;BME280;15330;51.234;6.754;2023-10-31T06:56:27;98815.44;;;6.49;100.00
28004;BME280;15330;51.234;6.754;2023-10-31T06:58:54;98819.09;;;6.48;100.00
28004;BME280;15330;51.234;6.754;2023-10-31T07:01:19;98823.53;;;6.41;100.00
28004;BME280;15330;51.234;6.754;2023-10-31T07:03:44;98821.88;;;6.40;100.00
28004;BME280;15330;51.234;6.754;2023-10-31T07:06:10;98819.94;;;6.48;100.00
28004;BME280;15330;51.234;6.754;2023-10-31T07:08:35;98822.47;;;6.56;100.00
28004;BME280;15330;51.234;6.754;2023-10-31T07:11:01;98820.56;;;6.50;100.00
28004;BME280;15330;51.234;6.754;2023-10-31T07:13:26;98822.94;;;6.45;100.00
28004;BME280;15330;51.234;6.754;2023-10-31T07:15:51;98834.50;;;6.52;100.00
28004;BME280;15330;51.234;6.754;2023-10-31T07:18:17;98827.16;;;6.54;100.00
28004;BME280;15330;51.234;6.754;2023-10-31T07:20:42;98822.53;;;6.42;100.00
28004;BME280;15330;51.234;6.754;2023-10-31T07:23:07;98832.75;;;6.45;100.00
28004;BME280;15330;51.234;6.754;2023-10-31T07:25:33;98839.75;;;6.31;100.00
28004;BME280;15330;51.234;6.754;2023-10-31T07:27:58;98832.13;;;6.43;100.00
28004;BME280;15330;51.234;6.754;2023-10-31T07:33:09;98845.75;;;6.54;100.00
28004;BME280;15330;51.234;6.754;2023-10-31T07:35:34;98849.88;;;6.57;100.00
28004;BME280;15330;51.234;6.754;2023-10-31T07:38:00;98860.13;;;6.60;100.00
28004;BME280;15330;51.234;6.754;2023-10-31T07:40:25;98867.50;;;6.43;100.00
28004;BME280;15330;51.234;6.754;2023-10-31T07:42:51;98872.22;;;6.48;100.00
28004;BME280;15330;51.234;6.754;2023-10-31T07:45:16;98867.09;;;6.46;100.00
28004;BME280;15330;51.234;6.754;2023-10-31T07:47:41;98864.53;;;6.53;100.00
28004;BME280;15330;51.234;6.754;2023-10-31T07:50:07;98868.63;;;6.55;100.00
28004;BME280;15330;51.234;6.754;2023-10-31T07:52:33;98878.72;;;6.60;100.00
28004;BME280;15330;51.234;6.754;2023-10-31T07:54:58;98865.97;;;6.55;100.00
28004;BME280;15330;51.234;6.754;2023-10-31T07:57:23;98872.41;;;6.61;100.00
28004;BME280;15330;51.234;6.754;2023-10-31T07:59:49;98866.44;;;6.44;100.00
28004;BME280;15330;51.234;6.754;2023-10-31T08:02:14;98873.41;;;6.45;100.00
28004;BME280;15330;51.234;6.754;2023-10-31T08:04:39;98872.41;;;6.46;100.00
28004;BME280;15330;51.234;6.754;2023-10-31T08:07:05;98882.50;;;6.51;100.00
28004;BME280;15330;51.234;6.754;2023-10-31T08:09:30;98882.94;;;6.54;100.00
28004;BME280;15330;51.234;6.754;2023-10-31T08:11:55;98886.88;;;6.58;100.00
28004;BME280;15330;51.234;6.754;2023-10-31T08:14:21;98885.59;;;6.69;100.00
28004;BME280;15330;51.234;6.754;2023-10-31T08:16:47;98893.00;;;6.59;100.00
28004;BME280;15330;51.234;6.754;2023-10-31T08:19:13;98888.69;;;6.73;100.00
28004;BME280;15330;51.234;6.754;2023-10-31T08:21:39;98887.00;;;6.86;100.00
28004;BME280;15330;51.234;6.754;2023-10-31T08:24:05;98895.44;;;6.75;100.00
28004;BME280;15330;51.234;6.754;2023-10-31T08:26:31;98893.53;;;6.84;100.00
28004;BME280;15330;51.234;6.754;2023-10-31T08:28:57;98900.56;;;6.91;100.00
28004;BME280;15330;51.234;6.754;2023-10-31T08:31:22;98905.41;;;7.03;100.00
28004;BME280;15330;51.234;6.754;2023-10-31T08:33:48;98899.28;;;7.02;100.00
28004;BME280;15330;51.234;6.754;2023-10-31T08:36:14;98906.94;;;7.12;100.00
28004;BME280;15330;51.234;6.754;2023-10-31T08:38:39;98908.06;;;7.03;100.00
28004;BME280;15330;51.234;6.754;2023-10-31T08:41:08;98911.63;;;7.10;100.00
28004;BME280;15330;51.234;6.754;2023-10-31T08:43:33;98910.38;;;7.06;100.00
28004;BME280;15330;51.234;6.754;2023-10-31T08:45:58;98918.13;;;7.07;100.00
28004;BME280;15330;51.234;6.754;2023-10-31T08:48:24;98921.94;;;7.19;100.00
28004;BME280;15330;51.234;6.754;2023-10-31T08:50:50;98917.69;;;7.04;100.00
28004;BME280;15330;51.234;6.754;2023-10-31T08:53:15;98927.16;;;6.91;100.00
28004;BME280;15330;51.234;6.754;2023-10-31T08:55:41;98931.00;;;6.89;100.00
28004;BME280;15330;51.234;6.754;2023-10-31T08:58:12;98926.72;;;6.73;100.00
28004;BME280;15330;51.234;6.754;2023-10-31T09:00:38;98927.88;;;6.85;100.00
28004;BME280;15330;51.234;6.754;2023-10-31T09:03:04;98925.22;;;6.85;100.00
28004;BME280;15330;51.234;6.754;2023-10-31T09:05:29;98932.47;;;6.77;100.00
28004;BME280;15330;51.234;6.754;2023-10-31T09:07:54;98927.50;;;6.88;100.00
28004;BME280;15330;51.234;6.754;2023-10-31T09:10:20;98931.81;;;6.89;100.00
28004;BME280;15330;51.234;6.754;2023-10-31T09:12:45;98937.13;;;6.89;100.00
28004;BME280;15330;51.234;6.754;2023-10-31T09:15:11;98950.78;;;7.01;100.00
28004;BME280;15330;51.234;6.754;2023-10-31T09:17:38;98945.88;;;7.19;100.00
28004;BME280;15330;51.234;6.754;2023-10-31T09:20:04;98948.13;;;7.58;100.00
28004;BME280;15330;51.234;6.754;2023-10-31T09:22:30;98952.94;;;7.91;100.00
28004;BME280;15330;51.234;6.754;2023-10-31T09:24:55;98959.38;;;8.80;100.00
28004;BME280;15330;51.234;6.754;2023-10-31T09:27:20;98957.28;;;11.14;93.67
28004;BME280;15330;51.234;6.754;2023-10-31T09:29:46;98964.66;;;10.68;88.92
28004;BME280;15330;51.234;6.754;2023-10-31T09:32:11;98967.94;;;10.50;90.06
28004;BME280;15330;51.234;6.754;2023-10-31T09:34:37;98983.19;;;8.88;98.83
28004;BME280;15330;51.234;6.754;2023-10-31T09:37:03;98989.53;;;8.80;100.00
28004;BME280;15330;51.234;6.754;2023-10-31T09:39:31;98993.63;;;8.27;100.00
28004;BME280;15330;51.234;6.754;2023-10-31T09:41:56;98995.47;;;8.48;100.00
28004;BME280;15330;51.234;6.754;2023-10-31T09:44:21;98998.41;;;8.94;100.00
28004;BME280;15330;51.234;6.754;2023-10-31T09:46:47;99001.41;;;9.19;100.00
28004;BME280;15330;51.234;6.754;2023-10-31T09:49:13;99007.09;;;9.03;100.00
28004;BME280;15330;51.234;6.754;2023-10-31T09:51:39;99009.84;;;9.23;99.71
28004;BME280;15330;51.234;6.754;2023-10-31T09:54:06;99007.25;;;9.42;99.95
28004;BME280;15330;51.234;6.754;2023-10-31T09:56:33;99009.75;;;9.03;100.00
28004;BME280;15330;51.234;6.754;2023-10-31T09:59:00;99014.03;;;9.04;100.00
28004;BME280;15330;51.234;6.754;2023-10-31T10:01:26;99017.69;;;8.96;100.00
28004;BME280;15330;51.234;6.754;2023-10-31T10:03:52;99022.63;;;8.37;100.00
28004;BME280;15330;51.234;6.754;2023-10-31T10:06:20;99023.59;;;8.57;100.00
28004;BME280;15330;51.234;6.754;2023-10-31T10:08:46;99027.88;;;8.79;100.00
28004;BME280;15330;51.234;6.754;2023-10-31T10:11:12;99029.09;;;8.83;100.00
28004;BME280;15330;51.234;6.754;2023-10-31T10:13:37;99034.53;;;8.41;100.00
28004;BME280;15330;51.234;6.754;2023-10-31T10:16:03;99046.03;;;8.69;100.00
28004;BME280;15330;51.234;6.754;2023-10-31T10:18:31;99048.94;;;9.02;100.00
28004;BME280;15330;51.234;6.754;2023-10-31T10:20:59;99062.75;;;10.41;89.43
28004;BME280;15330;51.234;6.754;2023-10-31T10:23:26;99047.28;;;11.66;82.96
28004;BME280;15330;51.234;6.754;2023-10-31T10:25:52;99046.66;;;11.71;80.18
28004;BME280;15330;51.234;6.754;2023-10-31T10:28:18;99060.91;;;10.41;86.97
28004;BME280;15330;51.234;6.754;2023-10-31T10:30:47;99072.34;;;10.09;90.16
28004;BME280;15330;51.234;6.754;2023-10-31T10:33:14;99059.25;;;9.12;93.18
28004;BME280;15330;51.234;6.754;2023-10-31T10:35:40;99062.09;;;9.10;94.58
28004;BME280;15330;51.234;6.754;2023-10-31T10:38:10;99066.78;;;9.02;95.54
28004;BME280;15330;51.234;6.754;2023-10-31T10:40:42;99074.34;;;8.98;96.20
28004;BME280;15330;51.234;6.754;2023-10-31T10:43:12;99071.78;;;9.18;96.34
28004;BME280;15330;51.234;6.754;2023-10-31T10:45:42;99074.66;;;9.16;94.89
28004;BME280;15330;51.234;6.754;2023-10-31T10:48:12;99077.38;;;9.23;95.01
28004;BME280;15330;51.234;6.754;2023-10-31T10:50:42;99082.66;;;8.82;96.31
28004;BME280;15330;51.234;6.754;2023-10-31T10:55:41;99082.47;;;9.18;96.68
28004;BME280;15330;51.234;6.754;2023-10-31T10:58:41;99079.94;;;10.05;88.54
28004;BME280;15330;51.234;6.754;2023-10-31T11:01:04;99071.00;;;13.50;70.77
28004;BME280;15330;51.234;6.754;2023-10-31T11:03:31;99080.28;;;12.36;72.51
28004;BME280;15330;51.234;6.754;2023-10-31T11:05:57;99091.31;;;10.40;82.58
28004;BME280;15330;51.234;6.754;2023-10-31T11:08:23;99089.00;;;9.56;87.79
28004;BME280;15330;51.234;6.754;2023-10-31T11:10:52;99088.06;;;9.77;87.51
28004;BME280;15330;51.234;6.754;2023-10-31T11:13:20;99091.34;;;9.73;88.59
28004;BME280;15330;51.234;6.754;2023-10-31T11:15:46;99087.91;;;9.38;90.00
28004;BME280;15330;51.234;6.754;2023-10-31T11:18:12;99090.78;;;9.97;87.91
28004;BME280;15330;51.234;6.754;2023-10-31T11:20:38;99088.69;;;10.73;85.36
28004;BME280;15330;51.234;6.754;2023-10-31T11:23:04;99090.44;;;11.32;80.12
28004;BME280;15330;51.234;6.754;2023-10-31T11:25:32;99086.88;;;11.58;78.80
28004;BME280;15330;51.234;6.754;2023-10-31T11:28:10;99082.00;;;11.35;78.92
28004;BME280;15330;51.234;6.754;2023-10-31T11:30:36;99095.47;;;10.82;80.57
28004;BME280;15330;51.234;6.754;2023-10-31T11:33:01;99108.41;;;10.72;82.55
28004;BME280;15330;51.234;6.754;2023-10-31T11:35:33;99112.25;;;10.17;83.67
28004;BME280;15330;51.234;6.754;2023-10-31T11:38:06;99102.16;;;10.06;84.98
28004;BME280;15330;51.234;6.754;2023-10-31T11:40:32;99100.47;;;9.98;85.62
28004;BME280;15330;51.234;6.754;2023-10-31T11:42:59;99104.16;;;9.90;85.84
28004;BME280;15330;51.234;6.754;2023-10-31T11:45:40;99101.13;;;9.52;87.61
28004;BME280;15330;51.234;6.754;2023-10-31T11:48:10;99104.72;;;9.79;88.31
28004;BME280;15330;51.234;6.754;2023-10-31T11:50:37;99095.78;;;9.52;86.90
28004;BME280;15330;51.234;6.754;2023-10-31T11:53:03;99098.91;;;9.63;86.61
28004;BME280;15330;51.234;6.754;2023-10-31T11:55:40;99104.97;;;9.43;86.50
28004;BME280;15330;51.234;6.754;2023-10-31T11:58:15;99102.00;;;9.66;87.09
28004;BME280;15330;51.234;6.754;2023-10-31T12:00:41;99110.13;;;9.99;84.43
28004;BME280;15330;51.234;6.754;2023-10-31T12:03:06;99113.28;;;9.62;85.93
28004;BME280;15330;51.234;6.754;2023-10-31T12:05:32;99123.66;;;9.43;88.25
28004;BME280;15330;51.234;6.754;2023-10-31T12:07:57;99119.63;;;9.61;87.37
28004;BME280;15330;51.234;6.754;2023-10-31T12:10:28;99124.34;;;9.58;87.23
28004;BME280;15330;51.234;6.754;2023-10-31T12:12:55;99119.97;;;9.44;86.50
28004;BME280;15330;51.234;6.754;2023-10-31T12:15:21;99127.34;;;9.42;87.10
28004;BME280;15330;51.234;6.754;2023-10-31T12:17:48;99126.09;;;9.45;86.77
28004;BME280;15330;51.234;6.754;2023-10-31T12:20:13;99123.41;;;9.38;87.56
28004;BME280;15330;51.234;6.754;2023-10-31T12:22:39;99129.06;;;9.22;89.40
28004;BME280;15330;51.234;6.754;2023-10-31T12:25:09;99128.91;;;9.30;89.32
28004;BME280;15330;51.234;6.754;2023-10-31T12:27:49;99120.13;;;9.36;88.87
28004;BME280;15330;51.234;6.754;2023-10-31T12:30:19;99116.94;;;9.54;88.97
28004;BME280;15330;51.234;6.754;2023-10-31T12:32:45;99129.28;;;9.55;89.07
28004;BME280;15330;51.234;6.754;2023-10-31T12:35:16;99132.06;;;9.40;88.69
28004;BME280;15330;51.234;6.754;2023-10-31T12:37:47;99128.53;;;9.33;89.67
28004;BME280;15330;51.234;6.754;2023-10-31T12:40:16;99132.03;;;9.34;90.06
28004;BME280;15330;51.234;6.754;2023-10-31T12:42:43;99129.50;;;9.26;89.58
28004;BME280;15330;51.234;6.754;2023-10-31T12:45:09;99132.63;;;9.36;88.87
28004;BME280;15330;51.234;6.754;2023-10-31T12:47:34;99138.97;;;9.35;88.99
28004;BME280;15330;51.234;6.754;2023-10-31T12:52:52;99122.53;;;9.66;87.11
28004;BME280;15330;51.234;6.754;2023-10-31T12:55:20;99123.34;;;10.14;86.13
28004;BME280;15330;51.234;6.754;2023-10-31T12:57:46;99122.06;;;10.03;84.95
28004;BME280;15330;51.234;6.754;2023-10-31T13:00:13;99120.72;;;10.27;84.49
28004;BME280;15330;51.234;6.754;2023-10-31T13:02:39;99126.13;;;10.66;83.30
28004;BME280;15330;51.234;6.754;2023-10-31T13:05:10;99125.31;;;10.66;81.58